Página principal
METAR-TAF:

METAR-TAF

Aeroportos :

Aeroporto Internacional de Austin-Bergstrom

Austin, Texas, Estados Unidos

latitude: 30-11-40N, longitude: 097-40-12W, altura: 165 m

Observação actual do tempo

O boletim foi feito há 56 minutos, às 21:53 UTC
Vento 12 kt de nor-noroeste
Temperatura 12°C
Humidade 58%
Pressão 1026 hPa
Visibilidade: 16.1 km
Nuvens fragmentadasa uma altura de 3500 ft
Encobertoa uma altura de 4400 ft

METAR: KAUS 092153Z 34012KT 10SM BKN035 OVC044 12/04 A3029 RMK AO2 SLP260 T01170039 $

Hora: 16:49 (22:49 UTC)

Previsão

O boletim foi feito há 3 horas e 19 minutos, às 19:30 UTC
Previsão válida de 09 às 20 UTC a 10 às 24 UTC
Vento 11 kt de nor-noroeste
Visibilidade: 10 km
Nuvens dispersasa uma altura de 3500 ft
A partir de 09 às 2300 UTC
Vento 5 kt de norte
Visibilidade: 10 km
Poucas nuvensa uma altura de 3000 ft

TAF: KAUS 091930Z 0920/1024 34011KT P6SM SCT035 FM092300 35005KT P6SM FEW030

Observações e previsões do tempo de mais de 4000 aeroportos (mensagens METAR e TAF).

As estações disponíveis são os pontos amarelos e vermelhos sobre o mapa.

Mova o rato sobre o mapa para ver o nome da estação.

Depois clique no ponto para visualizar as observações e previsões meteorológicas.

Para alterar o mapa : clique nos botões verdes com uma cruz preta para aumentar o zoom; no botão verde com uma pitada de zoom; ou nas setas verdes para mapas adjacentes.


METAR-TAF: